College Heights Durango, Colorado
Current Conditions -  °F | °C
As of 7:53 PM on Friday 24 Oct 2014 (Local Time) from KDRO Reporting Station
Clear Clear  
Wind Chill: 58°   Ceiling: Unl
Heat Index: 58°   Visibility: 10mi
Dew Point: 32°   Wind: 0mph
Humidity: 37%   Direction: NA
Pressure: 30.34"   Gusts: NA
Location:  37.1483°N, 107.911°W
Report Text: KDRO 250153Z AUTO 00000KT 10SM CLR 14/00 A3034 RMK AO2 SLP250 T01440000
Loading
Personal Weather Stations






























Interactive Weather Map
Tropical Storm Tracking
New forecast layout! Learn more

10-Day Weather Forecast

Advertisements
Track Severe Weather on mobile